Stoneville, South Dakota
Current Conditions -  °F | °C
As of 4:58 AM on Monday 20 Oct 2014 (Local Time) from KRCA Reporting Station
Clear Clear  
Wind Chill: 46°   Ceiling: Unl
Heat Index: 50°   Visibility: 10mi
Dew Point: 37°   Wind: 8mph
Humidity: 62%   Direction: 190°S
Pressure: 30.05"   Gusts: NA
Location:  44.653°N, 102.847°W
Report Text: KRCA 201058Z AUTO 19007KT 10SM CLR 10/03 A3005 RMK AO2 SLP168 T00980029 $
Loading
Personal Weather Stations






























Interactive Weather Map New forecast layout! Learn more

10-Day Weather Forecast

Advertisements
Track Severe Weather on mobile